createdAt,value
2023-04-02T00:00:20.545Z,11.66
2023-04-02T00:01:20.579Z,11.68
2023-04-02T00:02:20.663Z,11.57
2023-04-02T00:03:20.783Z,11.61
2023-04-02T00:04:20.617Z,11.63
2023-04-02T00:05:20.643Z,11.66
2023-04-02T00:06:20.617Z,11.66
2023-04-02T00:07:20.637Z,11.71
2023-04-02T00:08:20.604Z,11.66
2023-04-02T00:09:20.601Z,11.47
2023-04-02T00:10:20.595Z,11.63
2023-04-02T00:11:20.597Z,11.54
2023-04-02T00:12:20.612Z,11.48
2023-04-02T00:13:20.606Z,11.47
2023-04-02T00:14:20.571Z,11.49
2023-04-02T00:15:20.577Z,11.52
2023-04-02T00:16:20.581Z,11.52
2023-04-02T00:17:20.581Z,11.58
2023-04-02T00:18:20.622Z,11.49
2023-04-02T00:19:20.578Z,11.53
2023-04-02T00:20:20.574Z,11.54
2023-04-02T00:21:20.580Z,11.55
2023-04-02T00:22:20.557Z,11.60
2023-04-02T00:23:20.554Z,11.49
2023-04-02T00:24:20.560Z,11.50
2023-04-02T00:25:20.554Z,11.55
2023-04-02T00:26:20.531Z,11.50
2023-04-02T00:27:20.539Z,11.63
2023-04-02T00:28:20.525Z,11.52
2023-04-02T00:29:20.534Z,11.49
2023-04-02T00:30:20.539Z,11.44
2023-04-02T00:31:20.532Z,11.60
2023-04-02T00:32:20.576Z,11.31
2023-04-02T00:33:20.535Z,11.24
2023-04-02T00:34:20.534Z,11.28
2023-04-02T00:35:20.539Z,11.43
2023-04-02T00:36:20.558Z,11.19
2023-04-02T00:37:20.534Z,11.15
2023-04-02T00:38:20.525Z,11.18
2023-04-02T00:39:20.529Z,11.21
2023-04-02T00:40:20.526Z,11.10
2023-04-02T00:41:20.524Z,11.01
2023-04-02T00:42:20.533Z,11.01
2023-04-02T00:43:20.527Z,10.99
2023-04-02T00:44:20.520Z,10.93
2023-04-02T00:45:20.518Z,10.95
2023-04-02T00:46:20.599Z,10.93
2023-04-02T00:47:20.558Z,10.86
2023-04-02T00:48:21.159Z,10.88
2023-04-02T00:49:20.640Z,10.75
2023-04-02T00:50:20.644Z,10.78
2023-04-02T00:51:20.717Z,10.71
2023-04-02T00:52:20.698Z,10.67
2023-04-02T00:53:20.735Z,10.61
2023-04-02T00:54:20.775Z,10.70
2023-04-02T00:55:20.809Z,10.64
2023-04-02T00:56:20.825Z,10.65
2023-04-02T00:57:20.905Z,10.61
2023-04-02T00:58:20.892Z,10.62
2023-04-02T00:59:20.916Z,10.63
2023-04-02T01:00:20.890Z,10.66
2023-04-02T01:01:20.916Z,10.56
2023-04-02T01:02:20.903Z,10.64
2023-04-02T01:03:20.972Z,10.59
2023-04-02T01:04:21.085Z,10.63
2023-04-02T01:05:20.886Z,10.64
2023-04-02T01:06:20.877Z,10.67
2023-04-02T01:07:20.877Z,10.66
2023-04-02T01:08:20.889Z,10.71
2023-04-02T01:09:20.905Z,10.64
2023-04-02T01:10:20.872Z,10.67
2023-04-02T01:11:20.870Z,10.69
2023-04-02T01:12:20.875Z,10.55
2023-04-02T01:13:20.874Z,10.63
2023-04-02T01:14:20.867Z,10.65
2023-04-02T01:15:20.862Z,10.64
2023-04-02T01:16:20.964Z,10.55
2023-04-02T01:17:20.841Z,10.68
2023-04-02T01:18:20.842Z,10.59
2023-04-02T01:19:20.836Z,10.54
2023-04-02T01:20:20.821Z,10.48
2023-04-02T01:21:20.817Z,10.50
2023-04-02T01:22:20.810Z,10.51
2023-04-02T01:23:20.825Z,10.54
2023-04-02T01:24:20.818Z,10.52
2023-04-02T01:25:20.822Z,10.51
2023-04-02T01:26:20.802Z,10.64
2023-04-02T01:27:20.808Z,10.47
2023-04-02T01:28:20.797Z,10.47
2023-04-02T01:29:20.788Z,10.49
2023-04-02T01:30:20.794Z,10.52
2023-04-02T01:31:20.817Z,10.48
2023-04-02T01:32:20.780Z,10.43
2023-04-02T01:33:20.802Z,10.48
2023-04-02T01:34:20.807Z,10.44
2023-04-02T01:35:20.770Z,10.41
2023-04-02T01:36:20.801Z,10.38
2023-04-02T01:37:20.770Z,10.36
2023-04-02T01:38:20.754Z,10.18
2023-04-02T01:39:20.776Z,10.27
2023-04-02T01:40:20.767Z,10.24
2023-04-02T01:41:20.754Z,10.17
2023-04-02T01:42:20.745Z,10.22
2023-04-02T01:43:20.745Z,10.11
2023-04-02T01:44:20.752Z,10.11
2023-04-02T01:45:20.748Z,10.09
2023-04-02T01:46:20.749Z,10.00
2023-04-02T01:47:20.732Z,10.02
2023-04-02T01:48:20.725Z,9.98
2023-04-02T01:49:20.738Z,10.03
2023-04-02T01:50:20.766Z,9.84
2023-04-02T01:51:20.788Z,9.83
2023-04-02T01:52:20.808Z,9.88
2023-04-02T01:53:20.858Z,9.88
2023-04-02T01:54:20.881Z,9.90
2023-04-02T01:55:20.912Z,9.79
2023-04-02T01:56:20.946Z,9.72
2023-04-02T01:57:21.013Z,9.76
2023-04-02T01:58:21.022Z,9.63
2023-04-02T01:59:21.041Z,9.71
2023-04-02T02:00:21.105Z,9.68
2023-04-02T02:01:21.193Z,9.73
2023-04-02T02:02:21.174Z,9.53
2023-04-02T02:03:21.182Z,9.57
2023-04-02T02:04:21.190Z,9.61
2023-04-02T02:05:21.235Z,9.51
2023-04-02T02:06:21.264Z,9.63
2023-04-02T02:07:21.297Z,9.48
2023-04-02T02:08:21.337Z,9.44
2023-04-02T02:09:21.307Z,9.46
2023-04-02T02:10:21.308Z,9.47
2023-04-02T02:11:21.300Z,9.50
2023-04-02T02:12:21.303Z,9.47
2023-04-02T02:13:21.305Z,9.48
2023-04-02T02:14:21.312Z,9.54
2023-04-02T02:15:21.315Z,9.48
2023-04-02T02:16:21.335Z,9.41
2023-04-02T02:17:21.349Z,9.35
2023-04-02T02:18:21.293Z,9.38
2023-04-02T02:19:21.297Z,9.33
2023-04-02T02:20:21.320Z,9.32
2023-04-02T02:21:21.293Z,9.34
2023-04-02T02:22:21.296Z,9.35
2023-04-02T02:23:21.309Z,9.38
2023-04-02T02:24:21.297Z,9.41
2023-04-02T02:25:21.320Z,9.41
2023-04-02T02:26:21.311Z,9.47
2023-04-02T02:27:21.320Z,9.33
2023-04-02T02:28:21.315Z,9.33
2023-04-02T02:29:21.330Z,9.23
2023-04-02T02:30:21.345Z,9.19
2023-04-02T02:31:21.351Z,9.16
2023-04-02T02:32:21.364Z,9.09
2023-04-02T02:33:21.349Z,9.12
2023-04-02T02:34:21.344Z,9.05
2023-04-02T02:35:21.352Z,9.15
2023-04-02T02:36:21.388Z,9.06
2023-04-02T02:37:21.364Z,9.07
2023-04-02T02:38:21.358Z,9.09
2023-04-02T02:39:21.362Z,9.10
2023-04-02T02:40:21.369Z,9.04
2023-04-02T02:41:21.362Z,9.12
2023-04-02T02:42:21.361Z,9.02
2023-04-02T02:43:21.389Z,9.02
2023-04-02T02:44:21.379Z,9.01
2023-04-02T02:45:21.385Z,8.98
2023-04-02T02:46:21.462Z,8.92
2023-04-02T02:47:21.390Z,8.88
2023-04-02T02:48:21.391Z,8.82
2023-04-02T02:49:21.384Z,8.93
2023-04-02T02:50:21.398Z,8.81
2023-04-02T02:51:21.388Z,8.77
2023-04-02T02:52:21.412Z,8.77
2023-04-02T02:53:21.405Z,8.83
2023-04-02T02:54:21.410Z,8.78
2023-04-02T02:55:21.418Z,8.78
2023-04-02T02:56:21.417Z,8.72
2023-04-02T02:57:21.458Z,8.73
2023-04-02T02:58:21.430Z,8.11
2023-04-02T02:59:21.459Z,7.64
2023-04-02T03:00:21.455Z,7.39
2023-04-02T03:01:21.487Z,7.02
2023-04-02T03:02:21.553Z,6.60
2023-04-02T03:03:21.644Z,6.29
2023-04-02T03:04:21.527Z,6.07
2023-04-02T03:05:21.492Z,5.77
2023-04-02T03:06:21.499Z,5.50
2023-04-02T03:07:21.500Z,5.28
2023-04-02T03:08:21.513Z,5.04
2023-04-02T03:09:21.560Z,4.89
2023-04-02T03:10:21.549Z,4.56
2023-04-02T03:11:21.566Z,4.34
2023-04-02T03:12:21.595Z,4.09
2023-04-02T03:13:21.577Z,3.89
2023-04-02T03:14:21.583Z,3.74
2023-04-02T03:15:21.607Z,3.63
2023-04-02T03:16:21.651Z,3.44
2023-04-02T03:17:21.656Z,3.29
2023-04-02T03:18:21.691Z,3.10
2023-04-02T03:19:21.730Z,2.98
2023-04-02T03:20:21.764Z,2.83
2023-04-02T03:21:21.803Z,2.72
2023-04-02T03:22:21.833Z,2.60
2023-04-02T03:23:21.885Z,2.47
2023-04-02T03:24:21.933Z,2.36
2023-04-02T03:25:21.989Z,2.23
2023-04-02T03:26:21.989Z,2.22
2023-04-02T03:27:22.050Z,2.09
2023-04-02T03:28:22.084Z,2.04
2023-04-02T03:29:22.120Z,1.93
2023-04-02T03:30:22.166Z,1.80
2023-04-02T03:31:22.225Z,1.75
2023-04-02T03:32:22.253Z,1.68
2023-04-02T03:33:22.268Z,1.57
2023-04-02T03:34:22.331Z,1.49
2023-04-02T03:35:22.355Z,1.47
2023-04-02T03:36:22.445Z,1.45
2023-04-02T03:37:22.445Z,1.38
2023-04-02T03:38:22.476Z,1.35
2023-04-02T03:39:22.532Z,1.34
2023-04-02T03:40:22.581Z,1.31
2023-04-02T03:41:22.615Z,1.28
2023-04-02T03:42:22.654Z,1.23
2023-04-02T03:43:22.709Z,1.22
2023-04-02T03:44:22.733Z,1.20
2023-04-02T03:45:22.783Z,1.13
2023-04-02T03:46:22.886Z,1.14
2023-04-02T03:47:22.913Z,1.11
2023-04-02T03:48:22.939Z,1.09
2023-04-02T03:49:22.999Z,1.07
2023-04-02T03:50:23.050Z,1.06
2023-04-02T03:51:23.113Z,1.02
2023-04-02T03:52:23.175Z,0.98
2023-04-02T03:53:23.226Z,0.98
2023-04-02T03:54:23.292Z,0.93
2023-04-02T03:55:23.370Z,0.93
2023-04-02T03:56:23.368Z,0.93
2023-04-02T03:57:23.417Z,0.91
2023-04-02T03:58:23.381Z,0.86
2023-04-02T03:59:23.389Z,0.85
2023-04-02T04:00:23.394Z,0.86
2023-04-02T04:01:23.407Z,0.81
2023-04-02T04:02:23.487Z,0.80
2023-04-02T04:03:23.414Z,0.76
2023-04-02T04:04:23.482Z,0.75
2023-04-02T04:05:23.439Z,0.74
2023-04-02T04:06:23.445Z,0.72
2023-04-02T04:07:23.453Z,0.72
2023-04-02T04:08:23.469Z,0.72
2023-04-02T04:09:23.533Z,0.72
2023-04-02T04:10:23.597Z,0.72
2023-04-02T04:11:23.721Z,0.72
2023-04-02T04:12:23.719Z,0.74
2023-04-02T04:13:23.784Z,0.72
2023-04-02T04:14:23.856Z,0.75
2023-04-02T04:15:23.929Z,0.74
2023-04-02T04:16:24.059Z,0.74
2023-04-02T04:17:24.078Z,0.73
2023-04-02T04:18:24.177Z,0.72
2023-04-02T04:19:24.238Z,0.71
2023-04-02T04:20:24.311Z,0.69
2023-04-02T04:21:24.378Z,0.66
2023-04-02T04:22:24.465Z,0.65
2023-04-02T04:23:24.533Z,0.62
2023-04-02T04:24:24.628Z,0.61
2023-04-02T04:25:24.677Z,0.58
2023-04-02T04:26:24.865Z,0.58
2023-04-02T04:27:24.835Z,0.58
2023-04-02T04:28:24.905Z,0.57
2023-04-02T04:29:24.989Z,0.57
2023-04-02T04:30:25.074Z,0.56
2023-04-02T04:31:26.044Z,0.57
2023-04-02T04:32:25.235Z,0.56
2023-04-02T04:33:25.382Z,0.55
2023-04-02T04:34:25.385Z,0.55
2023-04-02T04:35:25.455Z,0.56
2023-04-02T04:36:25.532Z,0.56
2023-04-02T04:37:25.614Z,0.56
2023-04-02T04:38:25.679Z,0.56
2023-04-02T04:39:25.753Z,0.55
2023-04-02T04:40:25.841Z,0.54
2023-04-02T04:41:25.925Z,0.53
2023-04-02T04:42:25.983Z,0.52
2023-04-02T04:43:26.058Z,0.51
2023-04-02T04:44:26.143Z,0.52
2023-04-02T04:45:26.194Z,0.51
2023-04-02T04:46:26.311Z,0.53
2023-04-02T04:47:26.271Z,0.53
2023-04-02T04:48:26.270Z,0.53
2023-04-02T04:49:26.295Z,0.54
2023-04-02T04:50:26.286Z,0.55
2023-04-02T04:51:26.306Z,0.56
2023-04-02T04:52:26.307Z,0.56
2023-04-02T04:53:26.316Z,0.56
2023-04-02T04:54:26.344Z,0.57
2023-04-02T04:55:26.351Z,0.56
2023-04-02T04:56:26.423Z,0.55
2023-04-02T04:57:26.557Z,0.56
2023-04-02T04:58:26.526Z,0.56
2023-04-02T04:59:26.589Z,0.56
2023-04-02T05:00:26.631Z,0.56
2023-04-02T05:01:26.727Z,0.55
2023-04-02T05:02:26.826Z,0.54
2023-04-02T05:03:26.842Z,0.54
2023-04-02T05:04:26.918Z,0.54
2023-04-02T05:05:26.903Z,0.54
2023-04-02T05:06:26.926Z,0.53
2023-04-02T05:07:26.915Z,0.53
2023-04-02T05:08:26.959Z,0.53
2023-04-02T05:09:26.934Z,0.54
2023-04-02T05:10:26.954Z,0.54
2023-04-02T05:11:26.960Z,0.55
2023-04-02T05:12:26.970Z,0.54
2023-04-02T05:13:26.977Z,0.57
2023-04-02T05:14:27.000Z,0.58
2023-04-02T05:15:26.989Z,0.57
2023-04-02T05:16:27.022Z,0.59
2023-04-02T05:17:27.034Z,0.62
2023-04-02T05:18:27.004Z,0.61
2023-04-02T05:19:27.022Z,0.59
2023-04-02T05:20:27.037Z,0.61
2023-04-02T05:21:27.049Z,0.61
2023-04-02T05:22:27.081Z,0.61
2023-04-02T05:23:27.076Z,0.61
2023-04-02T05:24:27.088Z,0.61
2023-04-02T05:25:27.115Z,0.62
2023-04-02T05:26:27.079Z,0.61
2023-04-02T05:27:27.097Z,0.61
2023-04-02T05:28:27.114Z,0.62
2023-04-02T05:29:27.126Z,0.63
2023-04-02T05:30:27.139Z,0.63
2023-04-02T05:31:27.177Z,0.63
2023-04-02T05:32:27.174Z,0.63
2023-04-02T05:33:27.190Z,0.65
2023-04-02T05:34:27.182Z,0.64
2023-04-02T05:35:27.180Z,0.65
2023-04-02T05:36:27.225Z,0.67
2023-04-02T05:37:27.218Z,0.67
2023-04-02T05:38:27.217Z,0.68
2023-04-02T05:39:27.227Z,0.69
2023-04-02T05:40:27.236Z,0.69
2023-04-02T05:41:27.263Z,0.71
2023-04-02T05:42:27.273Z,0.70
2023-04-02T05:43:27.260Z,0.73
2023-04-02T05:44:27.288Z,0.76
2023-04-02T05:45:27.278Z,0.75
2023-04-02T05:46:27.376Z,0.75
2023-04-02T05:47:27.351Z,0.79
2023-04-02T05:48:27.321Z,0.81
2023-04-02T05:49:27.322Z,0.81
2023-04-02T05:50:27.335Z,0.81
2023-04-02T05:51:27.355Z,0.82
2023-04-02T05:52:27.377Z,0.82
2023-04-02T05:53:27.383Z,0.86
2023-04-02T05:54:27.367Z,0.89
2023-04-02T05:55:27.364Z,0.87
2023-04-02T05:56:27.387Z,0.88
2023-04-02T05:57:39.867Z,0.89
2023-04-02T05:59:27.488Z,0.90
2023-04-02T06:00:27.514Z,0.90
2023-04-02T06:01:27.522Z,0.91
2023-04-02T06:02:27.643Z,0.93
2023-04-02T06:03:27.692Z,0.92
2023-04-02T06:04:27.560Z,0.93
2023-04-02T06:05:27.574Z,0.92
2023-04-02T06:06:27.594Z,0.95
2023-04-02T06:07:27.625Z,0.96
2023-04-02T06:08:27.625Z,0.94
2023-04-02T06:09:27.705Z,0.97
2023-04-02T06:10:27.695Z,0.97
2023-04-02T06:11:27.698Z,0.95
2023-04-02T06:12:27.732Z,0.94
2023-04-02T06:13:27.739Z,0.92
2023-04-02T06:14:27.802Z,0.89
2023-04-02T06:15:27.797Z,0.85
2023-04-02T06:16:27.847Z,0.82
2023-04-02T06:17:28.001Z,0.82
2023-04-02T06:18:27.977Z,0.82
2023-04-02T06:19:27.971Z,0.84
2023-04-02T06:20:27.907Z,0.87
2023-04-02T06:21:27.978Z,0.97
2023-04-02T06:22:28.009Z,1.11
2023-04-02T06:23:28.002Z,1.19
2023-04-02T06:24:27.951Z,1.23
2023-04-02T06:25:28.001Z,1.26
2023-04-02T06:26:28.054Z,1.27
2023-04-02T06:27:28.033Z,1.29
2023-04-02T06:28:28.053Z,1.29
2023-04-02T06:29:28.078Z,1.28
2023-04-02T06:30:28.073Z,1.26
2023-04-02T06:31:28.021Z,1.25
2023-04-02T06:32:28.108Z,1.16
2023-04-02T06:33:28.093Z,1.19
2023-04-02T06:34:28.011Z,1.18
2023-04-02T06:35:28.161Z,1.13
2023-04-02T06:36:28.095Z,1.11
2023-04-02T06:37:28.149Z,1.12
2023-04-02T06:38:28.153Z,1.10
2023-04-02T06:39:28.239Z,1.12
2023-04-02T06:40:28.262Z,1.13
2023-04-02T06:41:28.293Z,1.14
2023-04-02T06:42:28.368Z,1.12
2023-04-02T06:43:28.411Z,1.12
2023-04-02T06:44:28.430Z,1.14
2023-04-02T06:45:28.533Z,1.16
2023-04-02T06:46:28.595Z,1.17
2023-04-02T06:47:28.613Z,1.19
2023-04-02T06:48:28.649Z,1.21
2023-04-02T06:49:28.686Z,1.23
2023-04-02T06:50:28.727Z,1.25
2023-04-02T06:51:28.756Z,1.22
2023-04-02T06:52:28.758Z,1.21
2023-04-02T06:53:28.776Z,1.21
2023-04-02T06:54:28.809Z,1.17
2023-04-02T06:55:28.871Z,1.18
2023-04-02T06:56:28.849Z,1.14
2023-04-02T06:57:28.907Z,1.15
2023-04-02T06:58:28.913Z,1.13
2023-04-02T06:59:28.907Z,1.13
2023-04-02T07:00:28.923Z,1.08
2023-04-02T07:01:29.027Z,1.03
2023-04-02T07:02:29.089Z,1.03
2023-04-02T07:03:29.053Z,1.00
2023-04-02T07:04:29.150Z,0.98
2023-04-02T07:05:29.199Z,0.92
2023-04-02T07:06:29.295Z,0.93
2023-04-02T07:07:29.360Z,0.85
2023-04-02T07:08:29.464Z,0.79
2023-04-02T07:09:29.495Z,0.74
2023-04-02T07:10:29.588Z,0.70
2023-04-02T07:11:29.643Z,0.68
2023-04-02T07:12:29.749Z,0.64
2023-04-02T07:13:29.810Z,0.60
2023-04-02T07:14:29.880Z,0.56
2023-04-02T07:15:29.951Z,0.53
2023-04-02T07:16:30.072Z,0.51
2023-04-02T07:17:30.155Z,0.51
2023-04-02T07:18:30.177Z,0.50
2023-04-02T07:19:30.228Z,0.50
2023-04-02T07:20:30.311Z,0.50
2023-04-02T07:21:30.384Z,0.50
2023-04-02T07:22:30.387Z,0.50
2023-04-02T07:23:30.387Z,0.47
2023-04-02T07:24:30.399Z,0.47
2023-04-02T07:25:30.411Z,0.44
2023-04-02T07:26:30.418Z,0.42
2023-04-02T07:27:30.422Z,0.49
2023-04-02T07:28:30.440Z,0.50
2023-04-02T07:29:30.437Z,0.50
2023-04-02T07:30:30.438Z,0.50
2023-04-02T07:31:30.618Z,0.50
2023-04-02T07:32:30.655Z,0.50
2023-04-02T07:33:30.698Z,0.50
2023-04-02T07:34:30.718Z,0.50
2023-04-02T07:35:30.771Z,0.50
2023-04-02T07:36:30.843Z,0.51
2023-04-02T07:37:30.898Z,0.51
2023-04-02T07:38:30.976Z,0.50
2023-04-02T07:39:31.034Z,0.50
2023-04-02T07:40:31.089Z,0.50
2023-04-02T07:41:31.157Z,0.50
2023-04-02T07:42:31.168Z,0.49
2023-04-02T07:43:31.160Z,0.47
2023-04-02T07:44:31.166Z,0.44
2023-04-02T07:45:31.156Z,0.40
2023-04-02T07:46:31.216Z,0.37
2023-04-02T07:47:31.230Z,0.41
2023-04-02T07:48:31.169Z,0.47
2023-04-02T07:49:31.182Z,0.44
2023-04-02T07:50:31.173Z,0.42
2023-04-02T07:51:31.173Z,0.39
2023-04-02T07:52:31.175Z,0.38
2023-04-02T07:53:31.192Z,0.37
2023-04-02T07:54:31.187Z,0.41
2023-04-02T07:55:31.187Z,0.46
2023-04-02T07:56:31.188Z,0.50
2023-04-02T07:57:31.308Z,0.47
2023-04-02T07:58:31.267Z,0.40
2023-04-02T07:59:31.192Z,0.36
2023-04-02T08:00:31.198Z,0.34
2023-04-02T08:01:31.202Z,0.34
2023-04-02T08:02:31.316Z,0.37
2023-04-02T08:03:31.372Z,0.40
2023-04-02T08:04:31.224Z,0.46
2023-04-02T08:05:31.226Z,0.50
2023-04-02T08:06:31.231Z,0.51
2023-04-02T08:07:31.256Z,0.50
2023-04-02T08:08:31.243Z,0.48
2023-04-02T08:09:31.257Z,0.45
2023-04-02T08:10:31.256Z,0.42
2023-04-02T08:11:32.027Z,0.41
2023-04-02T08:12:31.287Z,0.38
2023-04-02T08:13:31.284Z,0.44
2023-04-02T08:14:31.273Z,0.50
2023-04-02T08:15:31.268Z,0.50
2023-04-02T08:16:31.286Z,0.50
2023-04-02T08:17:31.371Z,0.49
2023-04-02T08:18:31.292Z,0.48
2023-04-02T08:19:32.675Z,0.46
2023-04-02T08:20:31.287Z,0.44
2023-04-02T08:21:31.275Z,0.44
2023-04-02T08:22:31.273Z,0.50
2023-04-02T08:23:31.296Z,0.50
2023-04-02T08:24:31.327Z,0.53
2023-04-02T08:25:31.357Z,0.57
2023-04-02T08:26:31.388Z,0.53
2023-04-02T08:27:31.408Z,0.50
2023-04-02T08:28:31.435Z,0.51
2023-04-02T08:29:31.449Z,0.50
2023-04-02T08:30:31.551Z,0.50
2023-04-02T08:31:31.488Z,0.51
2023-04-02T08:32:31.539Z,0.50
2023-04-02T08:33:31.532Z,0.52
2023-04-02T08:34:31.552Z,0.51
2023-04-02T08:35:31.593Z,0.50
2023-04-02T08:36:31.599Z,0.50
2023-04-02T08:37:31.626Z,0.50
2023-04-02T08:38:31.630Z,0.50
2023-04-02T08:39:31.672Z,0.50
2023-04-02T08:40:31.667Z,0.50
2023-04-02T08:41:31.669Z,0.50
2023-04-02T08:42:31.683Z,0.50
2023-04-02T08:43:31.707Z,0.51
2023-04-02T08:44:31.705Z,0.52
2023-04-02T08:45:31.717Z,0.52
2023-04-02T08:46:31.922Z,0.50
2023-04-02T08:47:31.794Z,0.50
2023-04-02T08:48:31.765Z,0.50
2023-04-02T08:49:31.764Z,0.50
2023-04-02T08:50:31.754Z,0.50
2023-04-02T08:51:31.747Z,0.50
2023-04-02T08:52:31.754Z,0.50
2023-04-02T08:53:31.750Z,0.51
2023-04-02T08:54:31.765Z,0.50
2023-04-02T08:55:31.773Z,0.51
2023-04-02T08:56:31.782Z,0.50
2023-04-02T08:57:31.878Z,0.51
2023-04-02T08:58:31.768Z,0.50
2023-04-02T08:59:31.814Z,0.53
2023-04-02T09:00:31.790Z,0.57
2023-04-02T09:01:31.845Z,0.66
2023-04-02T09:02:31.986Z,0.76
2023-04-02T09:03:31.802Z,0.86
2023-04-02T09:04:31.854Z,0.95
2023-04-02T09:05:31.829Z,1.11
2023-04-02T09:06:31.828Z,1.27
2023-04-02T09:07:31.824Z,1.50
2023-04-02T09:08:31.835Z,1.88
2023-04-02T09:09:31.845Z,2.27
2023-04-02T09:10:31.911Z,2.56
2023-04-02T09:11:31.981Z,2.82
2023-04-02T09:12:32.064Z,3.20
2023-04-02T09:13:32.092Z,3.88
2023-04-02T09:14:32.156Z,4.50
2023-04-02T09:15:32.180Z,4.87
2023-04-02T09:16:32.258Z,5.72
2023-04-02T09:17:42.686Z,6.37
2023-04-02T09:18:33.288Z,6.39
2023-04-02T09:19:32.274Z,6.58
2023-04-02T09:20:32.258Z,7.14
2023-04-02T09:21:32.261Z,8.22
2023-04-02T09:22:32.258Z,10.31
2023-04-02T09:23:32.259Z,11.51
2023-04-02T09:24:32.271Z,12.63
2023-04-02T09:25:32.377Z,13.68
2023-04-02T09:26:32.279Z,14.93
2023-04-02T09:27:32.289Z,16.17
2023-04-02T09:28:32.262Z,17.18
2023-04-02T09:29:32.267Z,18.98
2023-04-02T09:30:32.281Z,19.03
2023-04-02T09:31:32.307Z,19.31
2023-04-02T09:32:32.271Z,20.07
2023-04-02T09:33:32.268Z,22.10
2023-04-02T09:34:32.306Z,25.23
2023-04-02T09:35:32.292Z,27.47
2023-04-02T09:36:32.337Z,28.65
2023-04-02T09:37:32.281Z,29.96
2023-04-02T09:38:32.280Z,31.91
2023-04-02T09:39:32.295Z,31.96
2023-04-02T09:40:32.285Z,32.37
2023-04-02T09:41:32.298Z,33.64
2023-04-02T09:42:32.283Z,36.19
2023-04-02T09:43:32.302Z,40.53
2023-04-02T09:44:32.301Z,42.88
2023-04-02T09:45:32.293Z,44.39
2023-04-02T09:46:32.325Z,44.53
2023-04-02T09:47:32.297Z,44.89
2023-04-02T09:48:32.280Z,46.23
2023-04-02T09:49:32.283Z,49.15
2023-04-02T09:50:32.268Z,54.02
2023-04-02T09:51:32.278Z,55.39
2023-04-02T09:52:32.268Z,56.21
2023-04-02T09:53:32.266Z,58.55
2023-04-02T09:54:32.264Z,59.94
2023-04-02T09:55:32.246Z,61.20
2023-04-02T09:56:32.290Z,62.04
2023-04-02T09:57:32.372Z,64.36
2023-04-02T09:58:32.345Z,66.27
2023-04-02T09:59:32.375Z,68.55
2023-04-02T10:00:41.663Z,70.23
2023-04-02T10:01:33.425Z,70.45
2023-04-02T10:02:32.407Z,71.16
2023-04-02T10:03:32.386Z,72.89
2023-04-02T10:04:32.397Z,76.60
2023-04-02T10:05:40.580Z,82.79
2023-04-02T10:06:33.377Z,70.76
2023-04-02T10:07:32.385Z,72.68
2023-04-02T10:08:32.371Z,76.10
2023-04-02T10:09:32.409Z,82.28
2023-04-02T10:10:32.373Z,91.34
2023-04-02T10:11:43.808Z,94.43
2023-04-02T10:12:33.382Z,94.58
2023-04-02T10:13:32.383Z,95.20
2023-04-02T10:14:32.390Z,96.89
2023-04-02T10:15:32.388Z,99.05
2023-04-02T10:16:32.463Z,103.83
2023-04-02T10:17:32.434Z,106.92
2023-04-02T10:18:32.371Z,105.50
2023-04-02T10:19:32.385Z,107.17
2023-04-02T10:20:36.354Z,108.37
2023-04-02T10:21:33.401Z,108.55
2023-04-02T10:22:32.360Z,108.92
2023-04-02T10:23:32.356Z,110.38
2023-04-02T10:24:32.358Z,113.27
2023-04-02T10:25:32.354Z,119.25
2023-04-02T10:26:32.343Z,117.99
2023-04-02T10:27:32.335Z,121.40
2023-04-02T10:28:32.330Z,123.17
2023-04-02T10:29:32.318Z,122.08
2023-04-02T10:30:32.642Z,123.94
2023-04-02T10:31:32.311Z,124.18
2023-04-02T10:32:32.361Z,124.10
2023-04-02T10:33:32.333Z,129.69
2023-04-02T10:34:32.302Z,129.79
2023-04-02T10:35:32.337Z,128.08
2023-04-02T10:36:32.281Z,129.41
2023-04-02T10:37:32.278Z,133.00
2023-04-02T10:38:32.270Z,133.31
2023-04-02T10:39:32.277Z,134.50
2023-04-02T10:40:32.276Z,134.70
2023-04-02T10:41:32.248Z,135.53
2023-04-02T10:42:32.237Z,135.70
2023-04-02T10:43:32.221Z,136.65
2023-04-02T10:44:32.221Z,137.90
2023-04-02T10:45:32.215Z,138.58
2023-04-02T10:46:32.253Z,139.79
2023-04-02T10:47:32.227Z,137.75
2023-04-02T10:48:32.194Z,135.38
2023-04-02T10:49:32.278Z,138.11
2023-04-02T10:50:32.170Z,138.13
2023-04-02T10:51:32.162Z,137.53
2023-04-02T10:52:32.154Z,139.43
2023-04-02T10:53:32.155Z,141.20
2023-04-02T10:54:32.132Z,135.49
2023-04-02T10:55:32.132Z,135.81
2023-04-02T10:56:44.122Z,136.48
2023-04-02T10:57:33.203Z,135.96
2023-04-02T10:58:32.096Z,136.84
2023-04-02T10:59:32.106Z,139.35
2023-04-02T11:00:32.105Z,142.05
2023-04-02T11:01:32.100Z,147.52
2023-04-02T11:02:32.204Z,145.27
2023-04-02T11:03:32.128Z,145.93
2023-04-02T11:04:32.084Z,145.17
2023-04-02T11:05:32.055Z,149.12
2023-04-02T11:06:32.039Z,145.36
2023-04-02T11:07:32.038Z,145.13
2023-04-02T11:08:32.029Z,143.44
2023-04-02T11:09:32.031Z,147.14
2023-04-02T11:10:32.023Z,145.81
2023-04-02T11:11:32.028Z,146.75
2023-04-02T11:12:31.997Z,144.34
2023-04-02T11:13:31.990Z,146.67
2023-04-02T11:14:31.986Z,146.09
2023-04-02T11:15:31.984Z,145.40
2023-04-02T11:16:32.049Z,145.33
2023-04-02T11:17:31.967Z,142.48
2023-04-02T11:18:31.956Z,142.65
2023-04-02T11:19:31.938Z,142.98
2023-04-02T11:20:31.946Z,143.18
2023-04-02T11:21:31.932Z,144.60
2023-04-02T11:22:31.934Z,146.01
2023-04-02T11:23:31.929Z,147.05
2023-04-02T11:24:31.926Z,145.83
2023-04-02T11:25:31.933Z,146.55
2023-04-02T11:26:31.920Z,147.93
2023-04-02T11:27:31.939Z,147.74
2023-04-02T11:28:31.925Z,147.05
2023-04-02T11:29:31.911Z,145.84
2023-04-02T11:30:31.910Z,147.30
2023-04-02T11:31:31.955Z,148.30
2023-04-02T11:32:31.919Z,146.78
2023-04-02T11:33:38.345Z,146.69
2023-04-02T11:34:32.887Z,146.79
2023-04-02T11:35:31.952Z,147.39
2023-04-02T11:36:31.873Z,147.75
2023-04-02T11:37:31.861Z,147.14
2023-04-02T11:38:31.856Z,147.46
2023-04-02T11:39:31.844Z,147.18
2023-04-02T11:40:31.845Z,148.48
2023-04-02T11:41:31.825Z,149.04
2023-04-02T11:42:31.826Z,146.53
2023-04-02T11:43:31.814Z,147.71
2023-04-02T11:44:31.817Z,150.21
2023-04-02T11:45:35.526Z,147.28
2023-04-02T11:46:32.849Z,147.60
2023-04-02T11:47:31.830Z,148.33
2023-04-02T11:48:31.810Z,149.22
2023-04-02T11:49:31.800Z,150.76
2023-04-02T11:50:31.793Z,151.27
2023-04-02T11:51:31.799Z,153.19
2023-04-02T11:52:31.800Z,151.14
2023-04-02T11:53:31.799Z,151.33
2023-04-02T11:54:31.782Z,151.45
2023-04-02T11:55:31.788Z,153.39
2023-04-02T11:56:31.788Z,152.87
2023-04-02T11:57:31.855Z,154.32
2023-04-02T11:58:31.766Z,155.41
2023-04-02T11:59:31.765Z,155.65
2023-04-02T12:00:31.756Z,155.95
2023-04-02T12:01:31.788Z,155.79
2023-04-02T12:02:31.875Z,155.83
2023-04-02T12:03:31.763Z,156.92
2023-04-02T12:04:31.751Z,155.74
2023-04-02T12:05:31.795Z,156.11
2023-04-02T12:06:31.750Z,155.61
2023-04-02T12:07:31.729Z,155.63
2023-04-02T12:08:31.732Z,156.10
2023-04-02T12:09:31.740Z,154.46
2023-04-02T12:10:31.775Z,156.47
2023-04-02T12:11:31.743Z,154.23
2023-04-02T12:12:31.735Z,153.09
2023-04-02T12:13:31.736Z,154.65
2023-04-02T12:14:31.724Z,151.94
2023-04-02T12:15:31.723Z,153.14
2023-04-02T12:16:31.741Z,151.85
2023-04-02T12:17:31.755Z,152.42
2023-04-02T12:18:31.694Z,151.17
2023-04-02T12:19:31.703Z,152.37
2023-04-02T12:20:31.701Z,148.76
2023-04-02T12:21:31.704Z,150.65
2023-04-02T12:22:31.687Z,150.40
2023-04-02T12:23:31.724Z,150.99
2023-04-02T12:24:31.682Z,151.09
2023-04-02T12:25:31.747Z,147.75
2023-04-02T12:26:31.667Z,149.12
2023-04-02T12:27:31.658Z,147.40
2023-04-02T12:28:31.662Z,147.38
2023-04-02T12:29:31.667Z,148.75
2023-04-02T12:30:31.646Z,148.39
2023-04-02T12:31:31.688Z,148.58
2023-04-02T12:32:31.673Z,148.59
2023-04-02T12:33:31.631Z,148.66
2023-04-02T12:34:31.622Z,148.85
2023-04-02T12:35:31.662Z,148.78
2023-04-02T12:36:31.622Z,149.10
2023-04-02T12:37:31.628Z,149.83
2023-04-02T12:38:31.611Z,150.03
2023-04-02T12:39:31.616Z,151.67
2023-04-02T12:40:31.608Z,151.42
2023-04-02T12:41:31.607Z,147.05
2023-04-02T12:42:31.609Z,146.91
2023-04-02T12:43:31.602Z,145.54
2023-04-02T12:44:31.599Z,144.94
2023-04-02T12:45:31.594Z,146.49
2023-04-02T12:46:31.683Z,149.22
2023-04-02T12:47:31.633Z,146.89
2023-04-02T12:48:31.589Z,146.63
2023-04-02T12:49:31.595Z,146.63
2023-04-02T12:50:31.587Z,143.44
2023-04-02T12:51:31.583Z,145.43
2023-04-02T12:52:31.594Z,144.20
2023-04-02T12:53:31.580Z,144.33
2023-04-02T12:54:31.572Z,144.27
2023-04-02T12:55:31.567Z,143.01
2023-04-02T12:56:31.574Z,144.30
2023-04-02T12:57:31.632Z,138.21
2023-04-02T12:58:31.588Z,142.64
2023-04-02T12:59:31.608Z,138.02
2023-04-02T13:00:31.634Z,139.57
2023-04-02T13:01:31.787Z,138.76
2023-04-02T13:02:31.748Z,139.96